Lytton, Canada
Current Conditions -  °F | °C
As of 7:54 PM on Saturday 25 Oct 2014 (Local Time) from CWLY Reporting Station
Light Rain Light Rain  
Wind Chill: 46°   Ceiling: 5500
Heat Index: 46°   Visibility: 5mi
Dew Point: 45°   Wind: 0mph
Humidity: 93%   Direction: NA
Pressure: 29.35"   Gusts: NA
Location:  50.23°N, 121.58°W
Report Text: CWLY 260254Z AUTO 00000KT 5SM -RA BR SCT004 SCT036 OVC055 08/07 A2935 RMK SLP944
Loading
Personal Weather Stations






























Interactive Weather Map
Tropical Storm Tracking
New forecast layout! Learn more

10-Day Weather Forecast

Advertisements
Track Severe Weather on mobile